Time;durP1;ratioP1;P1;durP2;ratioP2;P2;SDS_P1;SDS_P2;PMS_P1;PMS_P2;Temp;Humidity;BMP_temperature;BMP_pressure;BME280_temperature;BME280_humidity;BME280_pressure;Samples;Min_cycle;Max_cycle;Signal;HPM_P1;HPM_P2
2022/05/24 00:01:13;;;;;;;15.50;4.78;;;16.60;99.90;;;;;;7343865;19;109008;-88
2022/05/24 00:03:40;;;;;;;12.43;4.40;;;16.50;99.90;;;;;;7344770;19;110415;-88
2022/05/24 00:06:08;;;;;;;11.90;4.45;;;16.40;99.90;;;;;;7343699;19;108339;-86
2022/05/24 00:08:35;;;;;;;9.43;3.85;;;16.40;99.90;;;;;;7343361;19;108267;-87
2022/05/24 00:11:02;;;;;;;8.55;4.07;;;16.40;99.90;;;;;;7350071;19;108953;-87
2022/05/24 00:13:29;;;;;;;8.55;3.50;;;16.30;99.90;;;;;;7344201;19;108171;-87
2022/05/24 00:15:57;;;;;;;7.50;3.55;;;16.20;99.90;;;;;;7343867;19;110485;-88
2022/05/24 00:18:28;;;;;;;4.95;2.83;;;16.20;99.90;;;;;;7341349;19;108736;-88
2022/05/24 00:21:01;;;;;;;7.78;3.53;;;16.20;99.90;;;;;;7343140;19;108038;-88
2022/05/24 00:23:29;;;;;;;7.32;3.58;;;16.20;99.90;;;;;;7341708;19;109027;-87
2022/05/24 00:26:00;;;;;;;5.88;2.88;;;16.10;99.90;;;;;;7343703;19;108332;-87
2022/05/24 00:28:29;;;;;;;7.30;2.60;;;16.10;99.90;;;;;;7341565;19;108885;-86
2022/05/24 00:30:58;;;;;;;9.68;3.08;;;16.10;99.90;;;;;;7342369;19;108896;-86
2022/05/24 00:33:34;;;;;;;13.40;3.15;;;16.00;99.90;;;;;;7346674;19;110206;-87
2022/05/24 00:36:02;;;;;;;6.53;2.35;;;16.00;99.90;;;;;;7342741;19;108604;-87
2022/05/24 00:38:36;;;;;;;9.07;2.67;;;16.00;99.90;;;;;;7342924;19;108284;-87
2022/05/24 00:41:36;;;;;;;7.78;2.55;;;16.00;99.90;;;;;;7342445;19;108543;-87
2022/05/24 00:44:29;;;;;;;7.28;2.35;;;16.00;99.90;;;;;;7337386;19;109436;-86
2022/05/24 00:47:10;;;;;;;10.15;2.63;;;15.90;99.90;;;;;;7338330;19;108223;-87
2022/05/24 00:49:56;;;;;;;9.05;2.40;;;15.80;99.90;;;;;;7336269;19;109200;-88
2022/05/24 00:52:30;;;;;;;9.57;2.83;;;15.80;99.90;;;;;;7335830;19;108088;-87
2022/05/24 00:55:04;;;;;;;7.90;2.10;;;15.80;99.90;;;;;;7333440;19;107805;-86
2022/05/24 00:57:34;;;;;;;9.27;2.33;;;15.70;99.90;;;;;;7341317;19;108026;-86
2022/05/24 01:00:10;;;;;;;7.00;2.70;;;15.70;99.90;;;;;;7337861;19;108357;-87
2022/05/24 01:02:37;;;;;;;6.90;2.20;;;15.70;99.90;;;;;;7336855;19;108119;-87
2022/05/24 01:05:06;;;;;;;8.48;2.20;;;15.70;99.90;;;;;;7336018;19;109017;-88
2022/05/24 01:07:33;;;;;;;9.25;2.75;;;15.60;99.90;;;;;;7337988;19;108181;-87
2022/05/24 01:10:05;;;;;;;8.40;2.42;;;15.60;99.90;;;;;;7336358;19;108604;-87
2022/05/24 01:12:44;;;;;;;6.38;2.30;;;15.50;99.90;;;;;;7337516;19;109096;-87
2022/05/24 01:15:14;;;;;;;9.15;2.47;;;15.50;99.90;;;;;;7336538;19;107542;-87
2022/05/24 01:17:42;;;;;;;5.28;2.33;;;15.50;99.90;;;;;;7336003;19;108759;-87
2022/05/24 01:20:11;;;;;;;8.48;2.28;;;15.40;99.90;;;;;;7344517;19;108891;-87
2022/05/24 01:22:49;;;;;;;9.50;2.58;;;15.40;99.90;;;;;;7341305;19;107543;-86
2022/05/24 01:25:36;;;;;;;5.78;2.10;;;15.40;99.90;;;;;;7340404;19;109800;-86
2022/05/24 01:28:11;;;;;;;10.40;1.90;;;15.40;99.90;;;;;;7340056;19;109762;-87
2022/05/24 01:30:38;;;;;;;6.47;2.33;;;15.40;99.90;;;;;;7338963;19;108457;-86
2022/05/24 01:38:43;;;;;;;8.70;1.85;;;15.40;99.90;;;;;;7341427;19;108280;-87
2022/05/24 01:41:19;;;;;;;7.38;2.47;;;15.40;99.90;;;;;;7339915;19;109380;-87
2022/05/24 01:43:49;;;;;;;8.38;1.98;;;15.40;99.90;;;;;;7342437;19;106988;-87
2022/05/24 01:46:21;;;;;;;7.00;2.00;;;15.40;99.90;;;;;;7338911;19;108741;-86
2022/05/24 01:48:53;;;;;;;5.97;1.67;;;15.40;99.90;;;;;;7338016;19;108594;-87
2022/05/24 01:51:25;;;;;;;7.50;1.90;;;15.40;99.90;;;;;;7340474;19;107684;-87
2022/05/24 01:53:56;;;;;;;9.30;2.38;;;15.40;99.90;;;;;;7336683;19;109966;-87
2022/05/24 01:56:51;;;;;;;7.93;2.17;;;15.40;99.90;;;;;;7339593;19;108658;-87
2022/05/24 01:59:20;;;;;;;12.60;2.20;;;15.50;99.90;;;;;;7341187;19;108532;-87
2022/05/24 02:01:53;;;;;;;8.52;2.05;;;15.40;99.90;;;;;;7337793;19;108982;-87
2022/05/24 02:04:22;;;;;;;7.95;1.77;;;15.40;99.90;;;;;;7343666;19;107468;-87
2022/05/24 02:06:59;;;;;;;7.57;1.83;;;15.40;99.90;;;;;;7339127;19;109238;-86
2022/05/24 02:09:27;;;;;;;9.65;2.08;;;15.50;99.90;;;;;;7337046;19;107237;-87
2022/05/24 02:11:58;;;;;;;9.00;1.98;;;15.40;99.90;;;;;;7338405;19;108269;-87
2022/05/24 02:14:31;;;;;;;8.07;1.85;;;15.40;99.90;;;;;;7336917;19;112383;-87
2022/05/24 02:17:03;;;;;;;11.73;2.22;;;15.40;99.90;;;;;;7336369;19;107977;-88
2022/05/24 02:19:34;;;;;;;9.50;1.80;;;15.40;99.90;;;;;;7347122;19;108353;-86
2022/05/24 02:22:07;;;;;;;10.50;1.70;;;15.40;99.90;;;;;;7343771;19;108862;-87
2022/05/24 02:24:34;;;;;;;6.53;1.67;;;15.50;99.90;;;;;;7346801;19;108798;-87
2022/05/24 02:27:02;;;;;;;5.75;2.15;;;15.40;99.90;;;;;;7351104;19;108215;-87
2022/05/24 02:29:29;;;;;;;7.10;2.10;;;15.40;99.90;;;;;;7343824;19;107647;-87
2022/05/24 02:31:57;;;;;;;4.10;1.70;;;15.50;99.90;;;;;;7345677;19;110526;-86
2022/05/24 02:34:24;;;;;;;6.38;1.90;;;15.40;99.90;;;;;;7346329;19;109158;-87
2022/05/24 02:36:51;;;;;;;10.07;2.00;;;15.40;99.90;;;;;;7345316;19;108129;-87
2022/05/24 02:39:19;;;;;;;6.50;2.15;;;15.40;99.90;;;;;;7345707;19;108399;-87
2022/05/24 02:41:46;;;;;;;7.57;1.67;;;15.40;99.90;;;;;;7345898;19;108030;-87
2022/05/24 02:44:15;;;;;;;7.72;1.67;;;15.30;99.90;;;;;;7347120;19;107985;-86
2022/05/24 02:46:45;;;;;;;5.10;2.00;;;15.40;99.90;;;;;;7344113;19;110853;-87
2022/05/24 02:49:12;;;;;;;11.93;1.85;;;15.30;99.90;;;;;;7350192;19;111380;-86
2022/05/24 02:51:40;;;;;;;9.30;1.70;;;15.30;99.90;;;;;;7345823;19;108598;-88
2022/05/24 02:54:09;;;;;;;5.60;1.63;;;15.30;99.90;;;;;;7345327;19;107913;-87
2022/05/24 02:56:37;;;;;;;7.93;1.88;;;15.30;99.90;;;;;;7346204;19;108906;-87
2022/05/24 02:59:04;;;;;;;6.38;1.80;;;15.20;99.90;;;;;;7346483;19;108595;-86
2022/05/24 03:01:31;;;;;;;7.43;1.73;;;15.20;99.90;;;;;;7343550;19;108940;-87
2022/05/24 03:04:00;;;;;;;9.88;1.90;;;15.20;99.90;;;;;;7345785;19;110039;-87
2022/05/24 03:06:28;;;;;;;7.20;2.00;;;15.20;99.90;;;;;;7342269;19;108508;-87
2022/05/24 03:14:29;;;;;;;8.25;1.63;;;15.20;99.90;;;;;;7341747;19;109064;-87
2022/05/24 03:16:56;;;;;;;8.05;1.52;;;15.10;99.90;;;;;;7345203;19;108317;-88
2022/05/24 03:19:24;;;;;;;8.63;1.60;;;15.10;99.90;;;;;;7346104;19;107882;-86
2022/05/24 03:21:51;;;;;;;8.82;1.88;;;15.10;99.90;;;;;;7344590;19;110322;-87
2022/05/24 03:24:18;;;;;;;6.93;1.75;;;15.10;99.90;;;;;;7344283;19;110355;-86
2022/05/24 03:26:45;;;;;;;5.50;1.85;;;15.10;99.90;;;;;;7344871;19;108178;-88
2022/05/24 03:29:12;;;;;;;8.00;1.63;;;15.10;99.90;;;;;;7343897;19;109010;-87
2022/05/24 03:31:39;;;;;;;12.90;1.70;;;15.10;99.90;;;;;;7342665;19;108769;-87
2022/05/24 03:34:06;;;;;;;5.55;1.83;;;15.10;99.90;;;;;;7347962;19;107177;-87
2022/05/24 03:36:33;;;;;;;9.52;2.10;;;15.10;99.90;;;;;;7342933;19;108755;-87
2022/05/24 03:39:01;;;;;;;7.20;1.63;;;15.00;99.90;;;;;;7344324;19;112832;-87
2022/05/24 03:41:28;;;;;;;6.28;1.50;;;15.00;99.90;;;;;;7342852;19;108225;-87
2022/05/24 03:43:55;;;;;;;4.88;1.40;;;15.00;99.90;;;;;;7340420;19;108984;-87
2022/05/24 03:46:22;;;;;;;6.35;1.42;;;15.00;99.90;;;;;;7341404;19;107725;-86
2022/05/24 03:48:49;;;;;;;7.25;1.65;;;14.90;99.90;;;;;;7344271;19;108837;-88
2022/05/24 03:51:17;;;;;;;6.18;1.52;;;14.90;99.90;;;;;;7339277;19;108715;-87
2022/05/24 03:53:44;;;;;;;8.30;1.75;;;14.90;99.90;;;;;;7347214;19;108250;-88
2022/05/24 03:56:11;;;;;;;7.88;1.50;;;14.90;99.90;;;;;;7342075;19;107908;-87
2022/05/24 03:58:38;;;;;;;6.75;1.55;;;14.90;99.90;;;;;;7342542;19;110555;-86
2022/05/24 04:01:06;;;;;;;4.78;1.23;;;14.80;99.90;;;;;;7340813;19;109138;-88
2022/05/24 04:03:35;;;;;;;7.13;1.70;;;14.80;99.90;;;;;;7341427;19;107941;-87
2022/05/24 04:06:03;;;;;;;8.95;1.65;;;14.80;99.90;;;;;;7343684;19;110953;-87
2022/05/24 04:08:30;;;;;;;7.25;1.50;;;14.80;99.90;;;;;;7343676;19;108938;-87
2022/05/24 04:11:01;;;;;;;7.50;1.30;;;14.80;99.90;;;;;;7341280;19;107796;-88
2022/05/24 04:13:28;;;;;;;5.65;1.35;;;14.80;99.90;;;;;;7341238;19;107649;-86
2022/05/24 04:15:55;;;;;;;6.82;2.05;;;14.80;99.90;;;;;;7349414;19;111224;-86
2022/05/24 04:18:23;;;;;;;9.82;1.67;;;14.80;99.90;;;;;;7343254;19;108113;-88
2022/05/24 04:20:50;;;;;;;7.95;1.67;;;14.70;99.90;;;;;;7343203;19;109595;-87
2022/05/24 04:23:19;;;;;;;12.63;1.75;;;14.70;99.90;;;;;;7341946;19;107281;-87
2022/05/24 04:25:46;;;;;;;7.70;1.63;;;14.70;99.90;;;;;;7342669;19;108633;-87
2022/05/24 04:28:14;;;;;;;8.05;1.60;;;14.70;99.90;;;;;;7342785;19;109134;-87
2022/05/24 04:30:41;;;;;;;6.22;1.30;;;14.70;99.90;;;;;;7341394;19;108091;-86
2022/05/24 04:33:08;;;;;;;8.77;1.60;;;14.70;99.90;;;;;;7338856;19;108045;-86
2022/05/24 04:35:35;;;;;;;9.43;1.50;;;14.70;99.90;;;;;;7343019;19;111766;-87
2022/05/24 04:38:02;;;;;;;4.55;1.20;;;14.70;99.90;;;;;;7348689;19;108311;-87
2022/05/24 04:43:15;;;;;;;6.80;1.40;;;14.70;99.90;;;;;;7341203;19;108016;-86
2022/05/24 04:45:42;;;;;;;4.63;1.08;;;14.70;99.90;;;;;;7341147;19;108094;-87
2022/05/24 04:48:09;;;;;;;8.65;1.40;;;14.70;99.90;;;;;;7343402;19;110679;-86
2022/05/24 04:50:37;;;;;;;7.75;1.38;;;14.60;99.90;;;;;;7341402;19;108018;-86
2022/05/24 04:53:06;;;;;;;6.40;1.00;;;14.70;99.90;;;;;;7340776;19;108468;-86
2022/05/24 04:55:33;;;;;;;7.97;2.08;;;14.70;99.90;;;;;;7343248;19;109440;-86
2022/05/24 04:58:00;;;;;;;15.70;3.58;;;14.70;99.90;;;;;;7340816;19;108389;-86
2022/05/24 05:00:28;;;;;;;8.55;3.70;;;14.70;99.90;;;;;;7348463;19;108300;-87
2022/05/24 05:02:55;;;;;;;8.45;2.45;;;14.70;99.90;;;;;;7340900;19;108172;-86
2022/05/24 05:05:22;;;;;;;14.55;2.03;;;14.70;99.90;;;;;;7339530;19;107460;-86
2022/05/24 05:07:51;;;;;;;11.85;1.38;;;14.70;99.90;;;;;;7341539;19;109201;-86
2022/05/24 05:10:18;;;;;;;9.48;1.30;;;14.60;99.90;;;;;;7341372;19;108277;-86
2022/05/24 05:12:46;;;;;;;7.30;1.40;;;14.60;99.90;;;;;;7341745;19;110358;-87
2022/05/24 05:15:14;;;;;;;7.25;1.20;;;14.60;99.90;;;;;;7339391;19;109027;-87
2022/05/24 05:17:42;;;;;;;4.22;1.10;;;14.50;99.90;;;;;;7340733;19;108183;-92
2022/05/24 05:20:10;;;;;;;5.97;1.35;;;14.50;99.90;;;;;;7349254;19;107310;-88
2022/05/24 05:22:38;;;;;;;5.43;1.05;;;14.50;99.90;;;;;;7344849;19;109180;-90
2022/05/24 05:25:07;;;;;;;9.18;1.25;;;14.50;99.90;;;;;;7342350;19;108913;-87
2022/05/24 05:27:34;;;;;;;8.07;1.13;;;14.40;99.90;;;;;;7340899;19;108952;-88
2022/05/24 05:32:52;;;;;;;6.78;1.30;;;14.40;99.90;;;;;;7342120;19;108620;-88
2022/05/24 05:35:19;;;;;;;9.55;1.60;;;14.40;99.90;;;;;;7344650;19;108183;-91
2022/05/24 05:37:46;;;;;;;7.47;1.13;;;14.40;99.90;;;;;;7346452;19;109547;-89
2022/05/24 05:40:14;;;;;;;7.43;1.50;;;14.50;99.90;;;;;;7343393;19;108915;-89
2022/05/24 05:42:43;;;;;;;10.85;2.00;;;14.50;99.90;;;;;;7341441;19;108862;-92
2022/05/24 05:45:11;;;;;;;8.70;1.95;;;14.60;99.90;;;;;;7350354;19;107233;-90
2022/05/24 05:47:39;;;;;;;7.28;2.15;;;14.60;99.90;;;;;;7343377;19;107882;-89
2022/05/24 05:50:07;;;;;;;8.60;2.13;;;14.70;99.90;;;;;;7340665;19;109492;-91
2022/05/24 05:52:34;;;;;;;6.75;1.77;;;14.80;99.90;;;;;;7344687;19;108469;-90
2022/05/24 05:55:01;;;;;;;9.10;1.85;;;14.90;99.90;;;;;;7342837;19;108556;-88
2022/05/24 05:57:29;;;;;;;8.95;1.98;;;14.90;99.90;;;;;;7338951;19;108324;-90
2022/05/24 05:59:56;;;;;;;10.80;2.30;;;14.90;99.90;;;;;;7337825;19;107443;-89
2022/05/24 06:02:23;;;;;;;5.30;1.73;;;15.00;99.90;;;;;;7337255;19;108176;-88
2022/05/24 06:04:50;;;;;;;10.95;2.22;;;15.10;99.90;;;;;;7343630;19;107257;-88
2022/05/24 06:07:17;;;;;;;6.00;1.70;;;15.10;99.90;;;;;;7337355;19;108288;-87
2022/05/24 06:09:44;;;;;;;6.93;1.88;;;15.20;99.90;;;;;;7339031;19;108027;-86
2022/05/24 06:12:12;;;;;;;5.78;1.80;;;15.30;99.90;;;;;;7334913;19;108968;-87
2022/05/24 06:14:40;;;;;;;6.53;1.60;;;15.30;99.90;;;;;;7338135;19;107935;-88
2022/05/24 06:17:22;;;;;;;7.22;2.13;;;15.40;99.90;;;;;;7338810;19;108416;-88
2022/05/24 06:19:49;;;;;;;7.72;1.83;;;15.40;99.90;;;;;;7335579;19;107689;-87
2022/05/24 06:22:16;;;;;;;9.00;2.00;;;15.50;99.90;;;;;;7337582;19;108381;-88
2022/05/24 06:24:46;;;;;;;13.63;1.73;;;15.50;99.90;;;;;;7337064;19;107960;-87
2022/05/24 06:27:14;;;;;;;7.47;1.80;;;15.60;99.90;;;;;;7340091;19;108183;-87
2022/05/24 06:29:41;;;;;;;7.75;1.88;;;15.60;99.90;;;;;;7337646;19;108831;-88
2022/05/24 06:32:08;;;;;;;8.88;2.15;;;15.60;99.90;;;;;;7335011;19;108132;-88
2022/05/24 06:34:35;;;;;;;7.38;1.75;;;15.60;99.90;;;;;;7336071;19;108548;-88
2022/05/24 06:37:03;;;;;;;6.63;1.80;;;15.60;99.90;;;;;;7337599;19;108087;-89
2022/05/24 06:39:30;;;;;;;10.00;1.75;;;15.60;99.90;;;;;;7336574;19;110160;-89
2022/05/24 06:41:59;;;;;;;9.10;1.50;;;15.70;99.90;;;;;;7336274;19;109276;-88
2022/05/24 06:44:27;;;;;;;6.05;1.50;;;15.80;99.90;;;;;;7336693;19;108292;-90
2022/05/24 06:46:54;;;;;;;9.13;1.73;;;15.90;99.90;;;;;;7336941;19;112158;-88
2022/05/24 06:49:21;;;;;;;8.25;1.50;;;15.90;99.90;;;;;;7340836;19;108340;-88
2022/05/24 06:51:48;;;;;;;8.65;1.60;;;16.00;99.90;;;;;;7332932;19;107311;-89
2022/05/24 06:54:15;;;;;;;9.07;1.50;;;16.00;99.90;;;;;;7337238;19;108832;-89
2022/05/24 06:56:42;;;;;;;6.13;1.60;;;16.00;99.90;;;;;;7334664;19;108307;-88
2022/05/24 07:04:41;;;;;;;4.28;1.23;;;16.10;99.90;;;;;;7345179;19;108244;-88
2022/05/24 07:07:08;;;;;;;6.82;1.00;;;16.10;99.90;;;;;;7345287;19;107696;-88
2022/05/24 07:09:37;;;;;;;7.72;1.27;;;16.20;99.90;;;;;;7346473;19;108583;-88
2022/05/24 07:12:05;;;;;;;3.30;0.70;;;16.20;99.90;;;;;;7348607;19;107269;-88
2022/05/24 07:14:36;;;;;;;7.57;1.10;;;16.20;99.90;;;;;;7343643;19;108912;-89
2022/05/24 07:17:03;;;;;;;4.38;0.90;;;16.20;99.90;;;;;;7344146;19;107996;-89
2022/05/24 07:19:32;;;;;;;2.17;1.02;;;16.20;99.90;;;;;;7345384;19;108205;-88
2022/05/24 07:21:59;;;;;;;5.63;1.00;;;16.10;99.90;;;;;;7344196;19;108146;-88
2022/05/24 07:24:27;;;;;;;3.22;0.80;;;16.10;99.90;;;;;;7346129;19;108101;-90
2022/05/24 07:26:55;;;;;;;2.90;0.82;;;16.20;99.90;;;;;;7343382;19;107591;-89
2022/05/24 07:29:22;;;;;;;4.90;0.80;;;16.30;99.90;;;;;;7343952;19;109022;-88
2022/05/24 07:31:50;;;;;;;4.53;1.50;;;16.30;99.90;;;;;;7338533;19;108648;-89
2022/05/24 07:34:18;;;;;;;2.35;0.77;;;16.50;99.90;;;;;;7349342;19;108228;-89
2022/05/24 07:36:46;;;;;;;2.00;0.60;;;16.60;99.90;;;;;;7344270;19;108233;-90
2022/05/24 07:39:13;;;;;;;4.22;0.85;;;16.70;99.90;;;;;;7346304;19;107174;-90
2022/05/24 07:47:33;;;;;;;1.33;0.40;;;16.80;99.90;;;;;;7346484;19;109080;-90
2022/05/24 07:50:00;;;;;;;2.83;0.60;;;16.80;99.90;;;;;;7345696;19;108896;-89
2022/05/24 07:52:27;;;;;;;3.70;0.50;;;16.80;99.90;;;;;;7345008;19;108103;-89
2022/05/24 07:54:54;;;;;;;5.80;0.70;;;16.80;99.90;;;;;;7346849;19;108469;-90
2022/05/24 07:57:22;;;;;;;2.95;0.63;;;16.80;99.90;;;;;;7352362;19;107983;-90
2022/05/24 07:59:51;;;;;;;1.52;0.60;;;16.80;99.90;;;;;;7347693;19;110530;-89
2022/05/24 08:02:20;;;;;;;2.40;0.80;;;16.70;99.90;;;;;;7346392;19;108270;-89
2022/05/24 08:04:47;;;;;;;3.25;0.70;;;16.70;99.90;;;;;;7347033;19;108255;-89
2022/05/24 08:07:15;;;;;;;4.53;0.60;;;16.60;99.90;;;;;;7346580;19;107841;-90
2022/05/24 08:09:42;;;;;;;5.72;0.80;;;16.70;99.90;;;;;;7349524;19;108405;-88
2022/05/24 08:12:10;;;;;;;3.35;0.85;;;16.70;99.90;;;;;;7348208;19;108032;-90
2022/05/24 08:14:37;;;;;;;3.40;0.73;;;16.70;99.90;;;;;;7347266;19;107916;-91
2022/05/24 08:17:04;;;;;;;2.20;1.00;;;16.80;99.90;;;;;;7355246;19;108828;-89
2022/05/24 08:19:37;;;;;;;6.32;0.82;;;16.80;99.90;;;;;;7350166;19;108304;-88
2022/05/24 08:22:05;;;;;;;2.75;0.88;;;16.90;99.90;;;;;;7348283;19;109028;-90
2022/05/24 08:24:33;;;;;;;11.10;0.80;;;17.00;99.90;;;;;;7349856;19;110551;-89
2022/05/24 08:27:00;;;;;;;3.20;0.82;;;17.20;99.90;;;;;;7348286;19;108652;-91
2022/05/24 08:29:28;;;;;;;3.65;0.70;;;17.20;99.90;;;;;;7348020;19;108882;-87
2022/05/24 08:31:55;;;;;;;2.58;0.80;;;17.20;99.90;;;;;;7343684;19;111183;-88
2022/05/24 08:34:22;;;;;;;3.38;0.60;;;17.20;99.90;;;;;;7344873;19;107604;-89
2022/05/24 08:36:49;;;;;;;4.55;0.70;;;17.20;99.90;;;;;;7344920;19;108781;-90
2022/05/24 08:39:16;;;;;;;4.72;0.60;;;17.30;99.90;;;;;;7350272;19;108567;-88
2022/05/24 08:42:03;;;;;;;5.50;0.70;;;17.30;99.90;;;;;;7347064;19;111219;-90
2022/05/24 08:50:17;;;;;;;5.35;0.88;;;17.30;99.90;;;;;;7346295;19;109287;-89
2022/05/24 08:52:58;;;;;;;3.35;0.70;;;17.30;99.90;;;;;;7344122;19;108442;-90
2022/05/24 08:55:27;;;;;;;4.30;0.60;;;17.30;99.90;;;;;;7343265;19;108361;-88
2022/05/24 08:57:57;;;;;;;3.25;0.55;;;17.40;99.90;;;;;;7344560;19;108203;-90
2022/05/24 09:00:30;;;;;;;3.20;0.63;;;17.50;99.90;;;;;;7346620;19;107733;-89
2022/05/24 09:02:57;;;;;;;2.90;0.40;;;17.60;99.90;;;;;;7351411;19;108016;-88
2022/05/24 09:05:38;;;;;;;8.23;0.60;;;17.60;99.90;;;;;;7344544;19;108035;-89
2022/05/24 09:08:27;;;;;;;5.18;0.60;;;17.60;99.90;;;;;;7346097;19;108831;-89
2022/05/24 09:11:12;;;;;;;1.80;0.60;;;17.60;99.90;;;;;;7346123;19;107794;-89
2022/05/24 09:13:39;;;;;;;4.57;0.88;;;17.50;99.90;;;;;;7343835;19;108099;-92
2022/05/24 09:16:15;;;;;;;1.13;0.55;;;17.60;99.90;;;;;;7348936;19;108170;-93
2022/05/24 09:19:10;;;;;;;5.30;0.90;;;17.80;99.90;;;;;;7350171;19;109216;-91
2022/05/24 09:21:42;;;;;;;2.60;0.45;;;18.00;99.90;;;;;;7352076;19;108341;-92
2022/05/24 09:24:50;;;;;;;2.53;0.50;;;18.10;99.90;;;;;;7346045;19;107561;-94
2022/05/24 09:27:22;;;;;;;2.45;0.52;;;18.20;99.90;;;;;;7343012;19;109868;-94
2022/05/24 09:30:05;;;;;;;2.65;0.70;;;18.20;99.90;;;;;;7346223;19;108083;-93
2022/05/24 09:32:39;;;;;;;4.68;0.50;;;18.20;99.90;;;;;;7344143;19;108713;-93
2022/05/24 09:35:09;;;;;;;2.60;0.70;;;18.20;99.90;;;;;;7346999;19;108373;-93
2022/05/24 09:37:39;;;;;;;3.10;0.70;;;18.20;99.90;;;;;;7347896;19;108291;-93
2022/05/24 09:40:23;;;;;;;2.45;0.50;;;18.20;99.90;;;;;;7349154;19;108706;-94
2022/05/24 09:42:51;;;;;;;1.90;0.50;;;18.00;99.80;;;;;;7346546;19;108397;-92
2022/05/24 09:45:23;;;;;;;2.20;0.52;;;17.90;99.90;;;;;;7348712;19;107509;-94
2022/05/24 09:47:54;;;;;;;1.92;0.60;;;18.00;99.90;;;;;;7348859;19;108269;-95
2022/05/24 09:50:36;;;;;;;1.80;0.70;;;18.20;99.90;;;;;;7353512;19;106862;-95
2022/05/24 09:53:16;;;;;;;2.70;0.50;;;18.30;99.90;;;;;;7344943;19;107892;-93
2022/05/24 09:55:48;;;;;;;3.00;0.40;;;18.40;99.90;;;;;;7346753;19;108047;-93
2022/05/24 09:58:15;;;;;;;2.42;0.60;;;18.40;99.90;;;;;;7347279;19;107795;-93
2022/05/24 10:00:51;;;;;;;1.83;0.60;;;18.50;99.90;;;;;;7348328;19;108785;-92
2022/05/24 10:03:26;;;;;;;3.20;0.50;;;18.50;99.90;;;;;;7349172;19;108194;-95
2022/05/24 10:06:07;;;;;;;1.42;0.65;;;18.40;99.90;;;;;;7349927;19;110890;-93
2022/05/24 10:08:53;;;;;;;6.18;0.60;;;18.50;99.80;;;;;;7351519;19;107759;-92
2022/05/24 10:11:28;;;;;;;3.65;0.70;;;18.50;99.90;;;;;;7349451;19;107968;-95
2022/05/24 10:14:13;;;;;;;2.20;0.50;;;18.60;99.90;;;;;;7353126;19;107053;-93
2022/05/24 10:17:31;;;;;;;2.92;0.60;;;18.80;99.90;;;;;;7348969;19;106762;-93
2022/05/24 10:20:20;;;;;;;1.48;0.82;;;19.10;99.90;;;;;;7347546;19;108074;-95
2022/05/24 10:23:09;;;;;;;2.05;0.70;;;19.20;99.90;;;;;;7349702;19;108332;-94
2022/05/24 10:25:44;;;;;;;2.40;0.60;;;19.10;99.60;;;;;;7347607;19;108758;-93
2022/05/24 10:28:37;;;;;;;3.83;0.90;;;19.10;99.80;;;;;;7348779;19;108204;-94
2022/05/24 10:31:29;;;;;;;3.22;0.63;;;19.10;99.20;;;;;;7347437;19;109075;-91
2022/05/24 10:40:23;;;;;;;0.73;0.45;;;18.90;99.20;;;;;;7353014;19;107702;-95
2022/05/24 10:43:21;;;;;;;1.60;0.50;;;18.90;99.10;;;;;;7352775;19;110879;-94
2022/05/24 10:45:58;;;;;;;4.05;0.60;;;18.90;98.70;;;;;;7349753;19;108125;-94
2022/05/24 10:48:44;;;;;;;2.10;0.70;;;18.90;98.90;;;;;;7351222;19;109365;-94
2022/05/24 10:51:47;;;;;;;1.42;0.50;;;18.80;99.00;;;;;;7353475;19;107105;-95
2022/05/24 10:54:26;;;;;;;1.65;0.52;;;18.80;99.00;;;;;;7353098;19;108120;-94
2022/05/24 10:57:33;;;;;;;1.70;0.40;;;18.90;99.10;;;;;;7354761;19;108446;-94
2022/05/24 11:00:14;;;;;;;3.38;0.77;;;18.90;98.80;;;;;;7346778;19;108120;-88
2022/05/24 11:02:44;;;;;;;3.53;0.75;;;19.10;99.50;;;;;;7352166;19;111282;-87
2022/05/24 11:05:20;;;;;;;4.72;1.17;;;19.10;99.20;;;;;;7348652;19;107865;-88
2022/05/24 11:07:54;;;;;;;3.23;0.90;;;19.10;98.90;;;;;;7350032;19;109354;-88
2022/05/24 11:10:39;;;;;;;21.90;9.23;;;19.10;99.00;;;;;;7348774;19;108294;-89
2022/05/24 11:13:19;;;;;;;19.48;4.35;;;19.10;98.90;;;;;;7346821;19;109630;-88
2022/05/24 11:15:53;;;;;;;7.55;2.05;;;18.90;98.90;;;;;;7348384;19;110176;-87
2022/05/24 11:18:30;;;;;;;15.60;3.80;;;18.60;99.50;;;;;;7347373;19;111007;-88
2022/05/24 11:21:12;;;;;;;5.72;1.40;;;18.30;99.90;;;;;;7344031;19;108548;-89
2022/05/24 11:23:52;;;;;;;3.45;0.60;;;18.00;99.90;;;;;;7346923;19;108921;-89
2022/05/24 11:26:27;;;;;;;6.13;2.65;;;17.80;99.90;;;;;;7353378;19;108263;-87
2022/05/24 11:28:58;;;;;;;3.08;1.00;;;17.90;99.90;;;;;;7348778;19;108769;-87
2022/05/24 11:31:36;;;;;;;4.88;0.80;;;18.10;99.90;;;;;;7345016;19;107641;-85
2022/05/24 11:34:12;;;;;;;4.50;0.77;;;18.50;99.90;;;;;;7343606;19;108275;-86
2022/05/24 11:36:46;;;;;;;4.28;0.70;;;18.80;99.90;;;;;;7345250;19;109029;-89
2022/05/24 11:39:26;;;;;;;2.22;0.88;;;19.10;99.90;;;;;;7348707;19;108241;-88
2022/05/24 11:42:34;;;;;;;2.90;0.60;;;19.30;99.90;;;;;;7346616;19;107450;-89
2022/05/24 11:45:30;;;;;;;2.95;0.82;;;19.60;99.90;;;;;;7344366;19;108975;-90
2022/05/24 11:47:58;;;;;;;2.08;0.70;;;19.80;99.90;;;;;;7344234;19;108341;-89
2022/05/24 11:50:31;;;;;;;2.58;1.30;;;20.00;99.90;;;;;;7349054;19;108299;-89
2022/05/24 11:52:59;;;;;;;1.80;0.65;;;19.90;99.90;;;;;;7340648;19;107975;-88
2022/05/24 11:55:50;;;;;;;2.00;0.60;;;19.80;99.90;;;;;;7344579;19;108640;-92
2022/05/24 11:58:20;;;;;;;1.65;0.50;;;19.70;99.20;;;;;;7344353;19;108881;-89
2022/05/24 12:01:16;;;;;;;2.97;0.60;;;19.60;99.10;;;;;;7342019;19;108341;-87
2022/05/24 12:09:59;;;;;;;3.08;0.68;;;19.10;98.10;;;;;;7342817;19;108305;-87
2022/05/24 12:12:30;;;;;;;2.00;0.70;;;19.00;98.20;;;;;;7342493;19;107486;-88
2022/05/24 12:15:17;;;;;;;1.73;0.80;;;19.00;98.60;;;;;;7347016;19;108340;-88
2022/05/24 12:17:50;;;;;;;1.70;0.50;;;19.10;99.00;;;;;;7341129;19;108316;-87
2022/05/24 12:20:35;;;;;;;1.60;0.70;;;19.20;99.30;;;;;;7343154;19;108079;-89
2022/05/24 12:23:14;;;;;;;0.88;0.50;;;19.20;99.10;;;;;;7344651;19;110976;-88
2022/05/24 12:26:03;;;;;;;2.75;0.50;;;19.30;99.10;;;;;;7341707;19;108516;-88
2022/05/24 12:28:52;;;;;;;1.45;0.70;;;19.40;99.10;;;;;;7347267;19;109208;-89
2022/05/24 12:31:22;;;;;;;3.13;0.50;;;19.30;98.80;;;;;;7345115;19;108279;-88
2022/05/24 12:33:57;;;;;;;3.33;0.50;;;19.30;99.00;;;;;;7344720;19;107441;-88
2022/05/24 12:36:41;;;;;;;3.40;0.60;;;19.40;98.50;;;;;;7346546;19;108389;-89
2022/05/24 12:39:28;;;;;;;4.32;0.50;;;19.30;98.60;;;;;;7350017;19;107277;-90
2022/05/24 12:42:01;;;;;;;4.43;0.80;;;19.30;99.10;;;;;;7346970;19;108862;-89
2022/05/24 12:44:48;;;;;;;2.53;0.55;;;19.40;99.30;;;;;;7346943;19;107703;-89
2022/05/24 12:50:24;;;;;;;2.90;0.60;;;19.90;98.30;;;;;;7342982;19;127494;-90
2022/05/24 12:53:04;;;;;;;0.77;0.30;;;20.20;97.90;;;;;;7344148;19;108034;-89
2022/05/24 12:58:41;;;;;;;1.10;0.50;;;20.70;97.40;;;;;;7341364;19;109177;-89
2022/05/24 13:01:12;;;;;;;0.55;0.40;;;20.80;96.90;;;;;;7349766;19;107952;-92
2022/05/24 13:03:46;;;;;;;2.03;0.50;;;20.80;96.80;;;;;;7346598;19;109939;-90
2022/05/24 13:06:26;;;;;;;5.00;0.40;;;20.80;95.40;;;;;;7346971;19;107263;-89
2022/05/24 13:09:24;;;;;;;3.45;0.50;;;20.70;95.80;;;;;;7344503;19;108573;-90
2022/05/24 13:11:54;;;;;;;2.05;0.50;;;20.60;95.40;;;;;;7343615;19;111616;-90
2022/05/24 13:14:40;;;;;;;1.50;0.40;;;20.60;96.10;;;;;;7345937;19;108033;-91
2022/05/24 13:17:08;;;;;;;1.20;0.30;;;20.80;96.60;;;;;;7345656;19;109609;-88
2022/05/24 13:19:46;;;;;;;0.95;0.40;;;21.10;96.10;;;;;;7346166;19;107889;-90
2022/05/24 13:22:14;;;;;;;2.10;0.40;;;21.30;95.00;;;;;;7348260;19;107663;-92
2022/05/24 13:24:59;;;;;;;0.82;0.40;;;21.40;95.40;;;;;;7351724;19;107055;-88
2022/05/24 13:27:55;;;;;;;1.75;0.35;;;21.60;94.40;;;;;;7345054;19;108747;-90
2022/05/24 13:33:36;;;;;;;1.27;0.40;;;22.00;94.40;;;;;;7348014;19;111596;-92
2022/05/24 13:36:24;;;;;;;5.13;0.43;;;22.20;94.20;;;;;;7349376;19;107218;-93
2022/05/24 13:39:04;;;;;;;1.08;0.40;;;22.30;93.60;;;;;;7346545;19;107541;-91
2022/05/24 13:41:37;;;;;;;2.05;0.40;;;22.30;93.40;;;;;;7349304;19;109187;-92
2022/05/24 13:44:18;;;;;;;3.47;0.38;;;22.40;93.20;;;;;;7347143;19;107897;-90
2022/05/24 13:46:54;;;;;;;3.63;0.40;;;22.60;93.60;;;;;;7348025;19;107877;-92
2022/05/24 13:49:36;;;;;;;0.73;0.20;;;22.70;92.90;;;;;;7352010;19;111085;-92
2022/05/24 13:52:12;;;;;;;0.63;0.22;;;22.80;92.50;;;;;;7347371;19;107620;-91
2022/05/24 13:54:40;;;;;;;0.98;0.32;;;22.80;91.90;;;;;;7345613;19;109457;-91
2022/05/24 13:57:20;;;;;;;2.00;0.50;;;22.60;91.90;;;;;;7344326;19;108158;-92
2022/05/24 14:00:05;;;;;;;0.80;0.30;;;22.20;91.80;;;;;;7345134;19;107670;-92